Time;durP1;ratioP1;P1;durP2;ratioP2;P2;SDS_P1;SDS_P2;PMS_P1;PMS_P2;Temp;Humidity;BMP_temperature;BMP_pressure;BME280_temperature;BME280_humidity;BME280_pressure;Samples;Min_cycle;Max_cycle;Signal;HPM_P1;HPM_P2
2022/07/23 01:55:17;;;;;;;3.28;1.55;;;28.10;82.90;;;;;;4973757;28;20046;-59
2022/07/23 01:57:48;;;;;;;0.50;0.50;;;27.90;83.40;;;;;;5048954;28;20048;-59
2022/07/23 02:00:20;;;;;;;1.17;1.15;;;27.90;83.70;;;;;;5020988;28;20051;-57
2022/07/23 02:02:50;;;;;;;0.93;0.88;;;27.80;83.90;;;;;;5045691;28;20147;-54
2022/07/23 02:05:18;;;;;;;;;;;27.80;84.00;;;;;;5018523;28;20249;-58
2022/07/23 02:07:46;;;;;;;0.90;0.85;;;27.80;83.80;;;;;;5032881;28;19932;-59
2022/07/23 02:10:13;;;;;;;2.17;1.25;;;27.90;83.50;;;;;;4974604;28;20510;-55
2022/07/23 02:12:40;;;;;;;2.03;1.05;;;27.90;83.60;;;;;;5039639;28;20041;-58
2022/07/23 02:15:10;;;;;;;0.40;0.40;;;27.90;83.70;;;;;;5030343;28;20418;-59
2022/07/23 02:17:39;;;;;;;4.70;1.75;;;27.90;83.70;;;;;;5020176;28;20054;-59
2022/07/23 02:20:09;;;;;;;3.65;2.03;;;27.90;83.70;;;;;;5030544;28;20089;-59
2022/07/23 02:22:37;;;;;;;6.57;2.10;;;27.90;83.60;;;;;;5050734;28;20479;-58
2022/07/23 02:25:06;;;;;;;0.55;0.55;;;28.00;83.70;;;;;;5015680;28;20055;-57
2022/07/23 02:27:34;;;;;;;0.60;0.60;;;28.00;83.70;;;;;;5061547;28;20436;-57
2022/07/23 02:30:04;;;;;;;2.30;1.45;;;28.00;83.60;;;;;;5035513;28;20048;-59
2022/07/23 02:32:34;;;;;;;5.80;2.53;;;28.00;84.30;;;;;;5041068;28;20045;-57
2022/07/23 02:35:02;;;;;;;2.88;2.10;;;28.00;83.70;;;;;;5041521;28;20063;-55
2022/07/23 02:37:31;;;;;;;0.85;0.80;;;28.00;83.90;;;;;;5048726;28;20139;-56
2022/07/23 02:39:58;;;;;;;1.23;0.75;;;27.90;83.80;;;;;;5028030;28;20086;-59
2022/07/23 02:42:26;;;;;;;;;;;27.90;83.90;;;;;;5038763;28;20074;-57
2022/07/23 02:44:53;;;;;;;5.50;2.22;;;27.80;84.10;;;;;;5004263;28;19926;-56
2022/07/23 02:47:21;;;;;;;3.75;1.45;;;27.70;84.30;;;;;;5043325;28;20423;-56
2022/07/23 02:49:48;;;;;;;3.05;1.90;;;27.60;84.40;;;;;;5027561;28;20062;-58
2022/07/23 02:52:15;;;;;;;2.97;1.20;;;27.70;84.40;;;;;;5035449;28;20428;-56
2022/07/23 02:54:43;;;;;;;1.00;0.73;;;27.70;84.20;;;;;;5012082;28;20752;-54
2022/07/23 02:57:14;;;;;;;0.65;0.65;;;27.80;84.20;;;;;;5016727;28;20575;-58
2022/07/23 02:59:42;;;;;;;0.98;0.90;;;27.80;84.10;;;;;;5014594;28;20056;-55
2022/07/23 03:02:09;;;;;;;4.45;1.92;;;27.80;84.10;;;;;;5033456;28;20049;-60
2022/07/23 03:04:38;;;;;;;0.70;0.70;;;27.80;84.10;;;;;;5013733;28;20060;-58
2022/07/23 03:07:05;;;;;;;;;;;27.80;84.20;;;;;;5012149;28;20057;-57
2022/07/23 03:09:32;;;;;;;5.45;2.95;;;27.70;84.30;;;;;;5020086;28;20319;-60
2022/07/23 03:12:00;;;;;;;2.30;1.15;;;27.80;84.30;;;;;;5027691;28;20053;-57
2022/07/23 03:14:27;;;;;;;2.90;2.22;;;27.70;84.30;;;;;;5012899;28;20041;-58
2022/07/23 03:16:55;;;;;;;3.05;1.55;;;27.80;84.20;;;;;;5009044;28;20045;-58
2022/07/23 03:19:22;;;;;;;;;;;27.80;84.00;;;;;;5024895;28;20057;-59
2022/07/23 03:21:50;;;;;;;0.93;0.47;;;27.80;84.20;;;;;;5009165;28;19925;-56
2022/07/23 03:24:17;;;;;;;1.67;1.58;;;27.80;84.10;;;;;;5023661;28;20066;-59
2022/07/23 03:26:45;;;;;;;4.00;0.85;;;27.80;84.20;;;;;;5027156;28;20056;-58
2022/07/23 03:29:13;;;;;;;;;;;27.80;84.20;;;;;;5007481;28;20747;-59
2022/07/23 03:31:42;;;;;;;0.40;0.40;;;27.80;84.20;;;;;;5008141;28;19936;-57
2022/07/23 03:34:09;;;;;;;;;;;27.80;84.00;;;;;;5023093;28;20042;-57
2022/07/23 03:36:36;;;;;;;0.82;0.82;;;27.70;84.10;;;;;;5012778;28;19928;-54
2022/07/23 03:39:05;;;;;;;2.08;1.40;;;27.80;84.10;;;;;;5012294;28;20053;-57
2022/07/23 03:41:39;;;;;;;3.20;1.65;;;27.80;84.60;;;;;;5027949;28;20046;-56
2022/07/23 03:44:06;;;;;;;8.20;2.80;;;27.80;83.90;;;;;;5010821;28;20060;-56
2022/07/23 03:46:34;;;;;;;0.75;0.75;;;27.80;83.80;;;;;;5017292;28;20071;-56
2022/07/23 03:49:01;;;;;;;1.27;0.93;;;27.90;83.90;;;;;;5022808;28;20049;-54
2022/07/23 03:51:29;;;;;;;3.15;1.48;;;27.90;83.80;;;;;;5016166;28;20512;-57
2022/07/23 03:53:56;;;;;;;;;;;27.80;83.80;;;;;;5019894;28;20056;-54
2022/07/23 03:56:23;;;;;;;4.18;1.10;;;27.80;83.80;;;;;;5027985;28;20438;-59
2022/07/23 03:58:51;;;;;;;4.32;1.38;;;27.80;83.80;;;;;;5027919;28;20049;-58
2022/07/23 04:01:18;;;;;;;0.77;0.77;;;27.80;83.70;;;;;;5010450;28;21267;-59
2022/07/23 04:03:46;;;;;;;3.00;1.17;;;27.80;83.70;;;;;;5014191;28;20053;-58
2022/07/23 04:06:13;;;;;;;1.95;1.25;;;27.80;83.80;;;;;;5029937;28;20054;-56
2022/07/23 04:08:41;;;;;;;;;;;27.70;83.80;;;;;;5012280;28;20292;-56
2022/07/23 04:11:08;;;;;;;1.33;0.63;;;27.70;83.70;;;;;;5028497;28;20498;-55
2022/07/23 04:13:35;;;;;;;1.23;0.50;;;27.50;84.10;;;;;;5023648;28;20167;-58
2022/07/23 04:16:04;;;;;;;0.80;0.80;;;27.30;84.40;;;;;;5014965;28;20045;-56
2022/07/23 04:18:31;;;;;;;1.50;1.10;;;27.40;84.70;;;;;;5023543;28;20052;-56
2022/07/23 04:21:06;;;;;;;0.30;0.30;;;27.50;84.40;;;;;;5012771;28;20053;-56
2022/07/23 04:23:35;;;;;;;0.35;0.35;;;27.60;84.10;;;;;;5017038;28;20539;-57
2022/07/23 04:26:02;;;;;;;2.20;1.67;;;27.60;83.90;;;;;;5014045;28;20056;-58
2022/07/23 04:28:31;;;;;;;1.00;0.95;;;27.50;84.30;;;;;;5016767;28;20052;-60
2022/07/23 04:30:59;;;;;;;1.48;1.38;;;27.50;84.30;;;;;;5029152;28;20048;-58
2022/07/23 04:33:26;;;;;;;1.63;1.17;;;27.60;84.20;;;;;;5020904;28;20057;-55
2022/07/23 04:35:56;;;;;;;1.40;1.00;;;27.60;84.20;;;;;;5018008;28;20072;-58
2022/07/23 04:38:23;;;;;;;4.07;1.35;;;27.60;84.20;;;;;;5013304;28;20076;-60
2022/07/23 04:40:55;;;;;;;0.40;0.40;;;27.60;84.30;;;;;;5007387;28;20084;-59
2022/07/23 04:43:22;;;;;;;1.75;1.35;;;27.70;84.10;;;;;;5006466;28;20578;-57
2022/07/23 04:45:51;;;;;;;1.50;1.33;;;27.60;84.30;;;;;;5006851;28;20402;-56
2022/07/23 04:48:19;;;;;;;1.95;1.10;;;27.50;84.40;;;;;;5011926;28;20057;-54
2022/07/23 04:50:50;;;;;;;0.82;0.82;;;27.50;84.60;;;;;;5017669;28;20052;-58
2022/07/23 04:53:22;;;;;;;2.17;1.75;;;27.50;84.50;;;;;;5019611;28;20394;-58
2022/07/23 04:55:53;;;;;;;1.45;0.98;;;27.50;84.50;;;;;;5008437;28;20076;-58
2022/07/23 04:58:21;;;;;;;1.42;1.08;;;27.50;84.50;;;;;;5024181;28;20505;-60
2022/07/23 05:00:48;;;;;;;4.57;1.92;;;27.50;84.50;;;;;;5020016;28;20056;-57
2022/07/23 05:03:17;;;;;;;0.80;0.77;;;27.50;84.50;;;;;;5010490;28;20045;-57
2022/07/23 05:05:46;;;;;;;5.07;1.85;;;27.40;84.60;;;;;;5004012;28;20057;-53
2022/07/23 05:08:17;;;;;;;3.83;2.25;;;27.40;84.60;;;;;;5006258;28;20049;-55
2022/07/23 05:10:49;;;;;;;0.45;0.45;;;27.50;84.50;;;;;;5014372;28;20041;-56
2022/07/23 05:13:18;;;;;;;0.60;0.60;;;27.50;84.40;;;;;;5003465;28;20437;-57
2022/07/23 05:15:46;;;;;;;2.55;1.23;;;27.50;84.50;;;;;;5033490;28;20045;-60
2022/07/23 05:18:14;;;;;;;0.70;0.70;;;27.40;84.70;;;;;;5037698;28;20344;-58
2022/07/23 05:20:43;;;;;;;0.90;0.90;;;27.30;84.90;;;;;;5021949;28;20117;-57
2022/07/23 05:23:13;;;;;;;4.13;1.65;;;27.40;84.80;;;;;;5011054;28;20061;-57
2022/07/23 05:25:41;;;;;;;1.15;1.05;;;27.40;84.80;;;;;;5011037;28;20045;-54
2022/07/23 05:28:09;;;;;;;0.75;0.75;;;27.40;85.00;;;;;;5024678;28;20045;-57
2022/07/23 05:30:37;;;;;;;6.65;2.25;;;27.40;84.80;;;;;;5012103;28;20427;-56
2022/07/23 05:33:08;;;;;;;1.02;0.95;;;27.50;84.60;;;;;;5005564;28;20042;-55
2022/07/23 05:35:36;;;;;;;1.40;1.27;;;27.50;84.60;;;;;;5010074;28;20068;-54
2022/07/23 05:38:24;;;;;;;0.50;0.50;;;27.60;84.50;;;;;;5008402;28;20077;-55
2022/07/23 05:40:53;;;;;;;4.40;2.78;;;27.40;84.90;;;;;;5007233;28;20754;-59
2022/07/23 05:43:20;;;;;;;2.67;0.57;;;27.30;85.30;;;;;;5016631;28;20053;-51
2022/07/23 05:45:48;;;;;;;1.65;0.95;;;27.40;85.20;;;;;;5030892;28;20044;-55
2022/07/23 05:48:16;;;;;;;3.10;2.00;;;27.50;85.00;;;;;;5010628;28;20042;-55
2022/07/23 05:50:57;;;;;;;3.00;1.48;;;27.60;84.90;;;;;;5009372;28;20053;-56
2022/07/23 05:53:31;;;;;;;0.75;0.75;;;27.60;84.90;;;;;;5032562;28;20049;-56
2022/07/23 05:56:01;;;;;;;3.83;1.75;;;27.50;85.20;;;;;;5029839;28;20056;-57
2022/07/23 05:58:30;;;;;;;0.75;0.75;;;27.60;85.30;;;;;;5042986;28;20045;-53
2022/07/23 06:00:58;;;;;;;1.00;1.00;;;27.50;85.10;;;;;;5036216;28;20053;-56
2022/07/23 06:03:28;;;;;;;3.05;1.67;;;27.50;85.20;;;;;;5043274;28;20056;-52
2022/07/23 06:05:56;;;;;;;2.17;1.60;;;27.60;85.00;;;;;;5040378;28;20059;-54
2022/07/23 06:08:24;;;;;;;1.33;1.30;;;27.50;85.20;;;;;;5047625;28;20067;-57
2022/07/23 06:10:52;;;;;;;4.82;2.20;;;27.40;85.30;;;;;;5028949;28;20049;-57
2022/07/23 06:13:20;;;;;;;2.65;1.23;;;27.50;85.20;;;;;;4998373;28;20089;-56
2022/07/23 06:15:48;;;;;;;3.80;1.80;;;27.60;85.40;;;;;;4999512;28;20050;-53
2022/07/23 06:18:16;;;;;;;3.83;2.38;;;27.70;84.70;;;;;;4988520;28;20065;-57
2022/07/23 06:20:43;;;;;;;1.20;0.80;;;27.70;84.60;;;;;;4997565;28;20053;-55
2022/07/23 06:23:16;;;;;;;1.42;1.27;;;27.60;84.40;;;;;;5001621;28;20049;-57
2022/07/23 06:25:44;;;;;;;1.20;1.00;;;27.60;84.30;;;;;;4981522;28;20057;-56
2022/07/23 06:28:11;;;;;;;0.80;0.80;;;27.40;84.30;;;;;;4998386;28;20643;-55
2022/07/23 06:30:41;;;;;;;2.42;1.63;;;27.50;84.80;;;;;;4987400;28;20655;-56
2022/07/23 06:33:11;;;;;;;1.58;1.08;;;27.60;84.40;;;;;;4983125;28;20359;-55
2022/07/23 06:35:38;;;;;;;2.03;1.42;;;27.60;84.00;;;;;;4961628;28;20046;-51
2022/07/23 06:38:07;;;;;;;2.28;1.27;;;27.50;84.10;;;;;;4980790;28;20053;-51
2022/07/23 06:40:35;;;;;;;;;;;27.50;83.90;;;;;;4987598;28;20046;-54
2022/07/23 06:43:02;;;;;;;1.15;1.05;;;27.60;83.70;;;;;;5003982;28;20412;-57
2022/07/23 06:45:29;;;;;;;;;;;27.30;84.00;;;;;;5023269;28;20053;-57
2022/07/23 06:47:57;;;;;;;1.85;1.67;;;27.30;84.30;;;;;;5033558;28;19971;-57
2022/07/23 06:50:24;;;;;;;1.08;1.02;;;27.40;84.10;;;;;;5038453;28;20053;-55
2022/07/23 06:52:51;;;;;;;0.80;0.73;;;27.50;84.20;;;;;;5037516;28;20076;-56
2022/07/23 06:55:18;;;;;;;0.70;0.70;;;27.50;84.30;;;;;;5041380;28;20064;-57
2022/07/23 06:57:46;;;;;;;5.80;2.50;;;27.50;84.30;;;;;;5026268;28;20050;-56
2022/07/23 07:00:13;;;;;;;4.68;1.30;;;27.50;85.50;;;;;;5039345;28;20137;-57
2022/07/23 07:02:41;;;;;;;3.15;1.02;;;27.50;84.90;;;;;;5045692;28;20049;-58
2022/07/23 07:05:09;;;;;;;2.28;1.45;;;27.40;85.80;;;;;;5046637;28;20726;-56
2022/07/23 07:07:36;;;;;;;2.08;1.10;;;27.10;85.80;;;;;;5047696;28;20152;-56
2022/07/23 07:10:05;;;;;;;1.45;1.35;;;27.00;86.00;;;;;;5039382;28;20060;-57
2022/07/23 07:12:32;;;;;;;2.83;1.30;;;27.10;86.00;;;;;;5038661;28;20044;-59
2022/07/23 07:14:59;;;;;;;2.45;1.77;;;27.10;85.60;;;;;;5041130;28;20069;-53
2022/07/23 07:17:26;;;;;;;3.20;1.33;;;27.10;85.90;;;;;;5045834;28;20048;-57
2022/07/23 07:19:54;;;;;;;2.83;1.30;;;27.30;85.10;;;;;;5040738;28;20060;-58
2022/07/23 07:22:21;;;;;;;5.38;1.35;;;27.20;85.30;;;;;;5048658;28;20045;-54
2022/07/23 07:24:48;;;;;;;0.65;0.63;;;27.10;85.10;;;;;;5051384;28;20041;-55
2022/07/23 07:27:16;;;;;;;3.60;1.55;;;27.10;85.20;;;;;;5050178;28;20060;-51
2022/07/23 07:29:43;;;;;;;2.00;1.42;;;27.30;85.10;;;;;;5041021;28;20049;-53
2022/07/23 07:32:11;;;;;;;2.60;1.27;;;27.30;84.90;;;;;;5039948;28;20052;-55
2022/07/23 07:34:38;;;;;;;0.70;0.70;;;27.40;84.80;;;;;;5052885;28;20067;-57
2022/07/23 07:37:05;;;;;;;1.15;1.05;;;27.40;85.00;;;;;;5038013;28;20052;-58
2022/07/23 07:39:33;;;;;;;0.65;0.60;;;27.40;86.00;;;;;;5041014;28;20116;-58
2022/07/23 07:42:00;;;;;;;2.55;1.08;;;27.30;86.10;;;;;;5044201;28;20053;-59
2022/07/23 07:44:27;;;;;;;2.90;2.00;;;27.40;86.80;;;;;;5055282;28;20052;-58
2022/07/23 07:46:55;;;;;;;0.60;0.60;;;27.50;86.50;;;;;;5042987;28;20061;-52
2022/07/23 07:49:22;;;;;;;3.22;1.70;;;27.60;87.60;;;;;;5041626;28;20045;-58
2022/07/23 07:51:52;;;;;;;2.85;1.30;;;27.70;87.30;;;;;;5046570;28;20037;-59
2022/07/23 07:54:19;;;;;;;1.38;1.25;;;27.70;86.80;;;;;;5040068;28;20049;-55
2022/07/23 07:56:48;;;;;;;1.45;1.35;;;27.60;85.90;;;;;;5043423;28;20044;-60
2022/07/23 07:59:15;;;;;;;7.80;4.18;;;27.50;85.80;;;;;;5055601;28;20052;-60
2022/07/23 08:01:44;;;;;;;7.65;2.42;;;27.50;85.80;;;;;;5024136;28;20079;-53
2022/07/23 08:04:11;;;;;;;6.88;2.92;;;27.60;86.00;;;;;;5042732;28;20053;-60
2022/07/23 08:06:38;;;;;;;5.93;2.72;;;27.60;86.50;;;;;;5048179;28;20056;-58
2022/07/23 08:09:06;;;;;;;3.42;1.92;;;27.70;86.20;;;;;;5041325;28;20049;-57
2022/07/23 08:11:33;;;;;;;1.90;1.33;;;27.80;85.80;;;;;;5041388;28;20053;-59
2022/07/23 08:14:00;;;;;;;2.20;2.00;;;27.80;85.40;;;;;;5043404;28;20358;-59
2022/07/23 08:16:29;;;;;;;5.18;2.63;;;27.90;85.50;;;;;;5039128;28;20067;-52
2022/07/23 08:18:56;;;;;;;1.38;1.17;;;27.90;85.60;;;;;;5038955;28;20151;-58
2022/07/23 08:21:23;;;;;;;1.65;1.15;;;28.00;85.90;;;;;;5042463;28;20057;-57
2022/07/23 08:23:51;;;;;;;2.90;1.88;;;28.00;85.50;;;;;;5038731;28;20052;-56
2022/07/23 08:26:18;;;;;;;1.83;1.25;;;27.90;85.20;;;;;;5036585;28;20045;-55
2022/07/23 08:28:45;;;;;;;4.95;2.03;;;27.90;86.30;;;;;;5054144;28;20408;-56
2022/07/23 08:31:15;;;;;;;5.28;2.72;;;28.00;86.30;;;;;;5048992;28;20047;-56
2022/07/23 08:33:42;;;;;;;3.53;2.08;;;28.10;86.20;;;;;;5044653;28;20056;-55
2022/07/23 08:36:09;;;;;;;2.03;1.40;;;28.10;86.10;;;;;;5006217;28;20037;-59
2022/07/23 08:38:37;;;;;;;1.33;1.23;;;28.20;86.10;;;;;;5042581;28;20048;-58
2022/07/23 08:41:07;;;;;;;4.82;2.55;;;28.20;86.10;;;;;;5041594;28;20045;-61
2022/07/23 08:43:35;;;;;;;1.45;1.33;;;28.20;86.20;;;;;;5040771;28;20045;-57
2022/07/23 08:46:04;;;;;;;1.98;1.30;;;28.20;86.30;;;;;;5029439;28;20052;-60
2022/07/23 08:48:38;;;;;;;0.93;0.93;;;28.20;86.30;;;;;;5044278;28;20124;-59
2022/07/23 08:51:06;;;;;;;1.67;1.17;;;28.20;86.30;;;;;;5051549;28;20033;-58
2022/07/23 08:53:38;;;;;;;1.30;1.17;;;28.20;86.30;;;;;;5039873;28;20032;-56
2022/07/23 08:56:06;;;;;;;1.00;0.85;;;28.20;86.30;;;;;;5043122;28;20037;-56
2022/07/23 08:58:34;;;;;;;3.72;1.92;;;28.20;86.30;;;;;;5034838;28;20040;-57
2022/07/23 09:01:02;;;;;;;2.65;1.20;;;28.20;86.40;;;;;;5045719;28;20263;-59
2022/07/23 09:03:34;;;;;;;6.15;2.75;;;28.20;86.40;;;;;;5044946;28;20139;-57
2022/07/23 09:06:02;;;;;;;0.77;0.77;;;28.20;86.40;;;;;;5049605;28;20064;-59
2022/07/23 09:08:39;;;;;;;6.35;4.18;;;28.20;86.40;;;;;;5053094;28;20059;-59
2022/07/23 09:11:08;;;;;;;0.60;0.60;;;28.20;86.40;;;;;;5041673;28;20041;-59
2022/07/23 09:13:42;;;;;;;1.55;1.02;;;28.20;86.40;;;;;;5020264;28;20060;-61
2022/07/23 09:16:15;;;;;;;1.15;1.08;;;28.20;86.40;;;;;;5034542;28;20049;-62
2022/07/23 09:18:45;;;;;;;2.63;1.30;;;28.20;86.40;;;;;;5038890;28;20045;-60
2022/07/23 09:21:28;;;;;;;1.13;1.02;;;28.20;86.40;;;;;;5060339;28;20048;-59
2022/07/23 09:24:01;;;;;;;1.40;0.55;;;28.20;86.40;;;;;;5039030;28;20093;-60
2022/07/23 09:26:40;;;;;;;2.05;1.33;;;28.20;86.40;;;;;;5050165;28;20059;-57
2022/07/23 09:29:25;;;;;;;5.15;2.22;;;28.20;86.50;;;;;;5039801;28;20048;-60
2022/07/23 09:32:05;;;;;;;2.25;1.30;;;28.20;86.40;;;;;;5041724;28;20044;-56
2022/07/23 09:34:40;;;;;;;1.45;1.23;;;28.20;86.40;;;;;;5047707;28;20064;-59
2022/07/23 09:37:16;;;;;;;1.38;0.80;;;28.30;86.50;;;;;;5039983;28;20048;-59
2022/07/23 09:39:47;;;;;;;11.40;1.10;;;28.30;86.50;;;;;;5035774;28;20064;-61
2022/07/23 09:42:25;;;;;;;2.22;1.58;;;28.20;86.40;;;;;;5053117;28;20112;-62
2022/07/23 09:44:55;;;;;;;3.20;1.52;;;28.30;86.40;;;;;;5042663;28;20126;-59
2022/07/23 09:47:26;;;;;;;10.80;2.63;;;28.30;86.40;;;;;;5028112;28;20364;-58
2022/07/23 09:50:00;;;;;;;0.60;0.60;;;28.30;86.40;;;;;;5043587;28;20041;-57
2022/07/23 09:52:33;;;;;;;1.30;0.88;;;28.30;86.50;;;;;;5033728;28;20049;-63
2022/07/23 09:55:05;;;;;;;2.30;1.23;;;28.30;86.40;;;;;;5039532;28;20531;-59
2022/07/23 09:57:33;;;;;;;2.25;1.63;;;28.30;86.40;;;;;;5051651;28;20041;-57
2022/07/23 10:00:04;;;;;;;1.00;0.98;;;28.30;86.40;;;;;;5041631;28;20412;-61
2022/07/23 10:02:35;;;;;;;2.83;1.17;;;28.30;86.40;;;;;;5054586;28;20060;-59
2022/07/23 10:05:22;;;;;;;3.15;1.60;;;28.30;86.30;;;;;;5054609;28;20051;-61
2022/07/23 10:08:18;;;;;;;3.03;1.70;;;28.30;86.40;;;;;;5045225;28;20057;-59
2022/07/23 10:11:04;;;;;;;0.75;0.68;;;28.30;86.30;;;;;;5056338;28;20048;-61
2022/07/23 10:16:14;;;;;;;3.15;1.60;;;28.30;86.30;;;;;;5031763;28;20052;-57
2022/07/23 10:18:54;;;;;;;2.55;1.63;;;28.30;86.30;;;;;;5044688;28;20047;-55
2022/07/23 10:21:30;;;;;;;2.72;1.63;;;28.30;86.30;;;;;;5041337;28;20401;-59
2022/07/23 10:24:30;;;;;;;13.55;1.60;;;28.30;86.20;;;;;;5047335;28;20045;-57
2022/07/23 10:27:26;;;;;;;17.80;2.42;;;28.30;86.20;;;;;;5049536;28;20424;-61
2022/07/23 10:30:32;;;;;;;0.90;0.77;;;28.30;86.20;;;;;;5048709;28;20048;-56
2022/07/23 10:33:31;;;;;;;2.28;1.73;;;28.30;86.20;;;;;;5004974;28;20053;-59
2022/07/23 10:36:17;;;;;;;1.58;0.93;;;28.30;86.20;;;;;;5050818;28;20420;-57
2022/07/23 10:38:55;;;;;;;0.60;0.60;;;28.30;86.10;;;;;;5039745;28;20037;-57
2022/07/23 10:41:38;;;;;;;6.75;1.55;;;28.30;86.00;;;;;;5049687;28;20056;-60
2022/07/23 10:44:10;;;;;;;0.98;0.95;;;28.30;86.10;;;;;;5054024;28;20059;-58
2022/07/23 10:47:06;;;;;;;2.38;1.13;;;28.30;86.10;;;;;;5021378;28;20083;-58
2022/07/23 10:49:35;;;;;;;0.65;0.65;;;28.40;86.10;;;;;;5037713;28;20481;-59
2022/07/23 10:52:15;;;;;;;;;;;28.30;86.10;;;;;;5046352;28;20056;-61
2022/07/23 10:54:52;;;;;;;2.45;1.33;;;28.30;86.00;;;;;;5040308;28;19965;-58
2022/07/23 10:57:23;;;;;;;0.90;0.90;;;28.30;86.00;;;;;;5041946;28;20484;-61
2022/07/23 11:02:31;;;;;;;0.60;0.60;;;28.30;85.90;;;;;;5045083;28;20045;-61
2022/07/23 11:05:22;;;;;;;1.17;1.10;;;28.30;85.90;;;;;;5039095;28;20049;-58
2022/07/23 11:08:07;;;;;;;3.70;1.92;;;28.40;86.00;;;;;;5046449;28;20055;-61
2022/07/23 11:10:42;;;;;;;1.30;1.15;;;28.30;85.90;;;;;;5041924;28;20041;-59
2022/07/23 11:13:21;;;;;;;1.30;0.90;;;28.30;85.90;;;;;;5047030;28;20061;-57
2022/07/23 11:16:01;;;;;;;1.25;0.95;;;28.30;85.80;;;;;;5051002;28;20106;-59
2022/07/23 11:18:44;;;;;;;0.63;0.63;;;28.30;85.80;;;;;;5048097;28;20044;-56
2022/07/23 11:21:23;;;;;;;0.88;0.88;;;28.40;85.80;;;;;;5045402;28;20101;-59
2022/07/23 11:23:56;;;;;;;0.80;0.80;;;28.40;85.80;;;;;;5052771;28;20049;-60
2022/07/23 11:26:43;;;;;;;2.25;0.85;;;28.40;85.70;;;;;;5047953;28;20059;-61
2022/07/23 11:29:27;;;;;;;1.20;0.80;;;28.40;85.80;;;;;;5053442;28;20064;-61
2022/07/23 11:32:00;;;;;;;0.68;0.68;;;28.40;85.70;;;;;;5035483;28;20568;-61
2022/07/23 11:34:33;;;;;;;12.88;1.20;;;28.40;85.70;;;;;;5043973;28;20076;-57
2022/07/23 11:37:03;;;;;;;2.38;1.40;;;28.40;85.70;;;;;;5043177;28;20046;-61
2022/07/23 11:39:31;;;;;;;1.02;0.88;;;28.40;85.80;;;;;;5046042;28;20045;-61
2022/07/23 11:42:00;;;;;;;1.20;1.13;;;28.40;85.90;;;;;;5039586;28;20400;-60
2022/07/23 11:44:30;;;;;;;0.93;0.85;;;28.40;85.80;;;;;;5049335;28;20665;-60
2022/07/23 11:47:02;;;;;;;0.82;0.82;;;28.40;86.00;;;;;;5052734;28;20044;-58
2022/07/23 11:49:32;;;;;;;0.63;0.63;;;28.40;86.00;;;;;;5040395;28;20059;-60
2022/07/23 11:52:12;;;;;;;0.55;0.55;;;28.40;86.50;;;;;;5047790;28;20060;-58
2022/07/23 11:54:53;;;;;;;1.70;0.93;;;28.40;86.40;;;;;;5039931;28;20041;-57
2022/07/23 11:57:26;;;;;;;0.52;0.52;;;28.50;86.80;;;;;;5039979;28;20473;-59
2022/07/23 12:00:07;;;;;;;0.50;0.50;;;28.50;87.30;;;;;;5045049;28;20040;-57
2022/07/23 12:02:42;;;;;;;4.07;1.30;;;28.50;87.20;;;;;;5040792;28;20060;-59
2022/07/23 12:05:19;;;;;;;1.95;1.25;;;28.50;87.40;;;;;;5034075;28;20412;-60
2022/07/23 12:07:51;;;;;;;0.40;0.40;;;28.50;87.40;;;;;;5045983;28;20523;-62
2022/07/23 12:10:22;;;;;;;1.55;0.95;;;28.50;87.50;;;;;;5038833;28;20056;-61
2022/07/23 12:13:01;;;;;;;2.20;1.23;;;28.60;87.70;;;;;;5046438;28;20167;-59
2022/07/23 12:15:32;;;;;;;0.73;0.73;;;28.60;88.00;;;;;;5013253;28;20036;-59
2022/07/23 12:18:01;;;;;;;0.77;0.50;;;28.60;88.20;;;;;;5049737;28;20047;-57
2022/07/23 12:20:33;;;;;;;4.90;1.30;;;28.50;88.50;;;;;;5046916;28;20087;-54
2022/07/23 12:23:03;;;;;;;0.88;0.88;;;28.50;89.40;;;;;;5024020;28;20053;-57
2022/07/23 12:25:36;;;;;;;3.33;1.67;;;28.50;89.70;;;;;;5039000;28;20136;-60
2022/07/23 12:28:29;;;;;;;2.40;1.40;;;28.60;90.00;;;;;;5026058;28;20064;-57
2022/07/23 12:30:58;;;;;;;0.50;0.50;;;28.60;90.10;;;;;;5045023;28;20069;-60
2022/07/23 12:33:28;;;;;;;1.98;0.77;;;28.70;90.20;;;;;;5022868;28;20060;-59
2022/07/23 12:35:59;;;;;;;1.50;1.38;;;28.70;90.40;;;;;;5052741;28;20048;-59
2022/07/23 12:38:35;;;;;;;6.93;1.27;;;28.70;90.50;;;;;;5041560;28;20048;-62
2022/07/23 12:41:04;;;;;;;1.55;1.00;;;28.70;90.50;;;;;;5039941;28;20049;-54
2022/07/23 12:43:35;;;;;;;0.50;0.50;;;28.70;90.60;;;;;;5023981;28;20072;-58
2022/07/23 12:46:11;;;;;;;1.55;1.05;;;28.70;90.70;;;;;;5044437;28;20064;-62
2022/07/23 12:48:49;;;;;;;1.10;0.93;;;28.70;90.70;;;;;;5041927;28;20052;-57
2022/07/23 12:51:31;;;;;;;1.85;1.52;;;28.80;90.80;;;;;;5038103;28;20080;-58
2022/07/23 12:54:05;;;;;;;0.40;0.40;;;28.70;90.80;;;;;;5040842;28;20056;-61
2022/07/23 12:56:40;;;;;;;3.22;1.52;;;28.70;90.80;;;;;;5039463;28;20048;-55
2022/07/23 12:59:14;;;;;;;4.38;2.08;;;28.70;90.70;;;;;;5041677;28;20052;-55
2022/07/23 13:01:49;;;;;;;5.38;2.08;;;28.80;90.70;;;;;;5035507;28;20174;-60
2022/07/23 13:04:19;;;;;;;14.37;2.67;;;28.80;90.70;;;;;;5030003;28;20048;-57
2022/07/23 13:07:00;;;;;;;4.18;1.02;;;28.70;90.60;;;;;;5040972;28;20326;-59
2022/07/23 13:09:33;;;;;;;8.27;2.03;;;28.70;90.50;;;;;;5042285;28;20125;-55
2022/07/23 13:12:09;;;;;;;1.42;1.00;;;28.70;90.70;;;;;;5037992;28;20352;-54
2022/07/23 13:14:38;;;;;;;1.30;1.20;;;28.60;90.40;;;;;;5046394;28;20053;-59
2022/07/23 13:17:06;;;;;;;3.40;1.50;;;28.70;90.30;;;;;;5045257;28;20048;-58
2022/07/23 13:19:34;;;;;;;0.73;0.73;;;28.70;90.30;;;;;;5048799;28;20045;-60
2022/07/23 13:22:01;;;;;;;0.47;0.47;;;28.60;90.10;;;;;;5040442;28;20430;-55
2022/07/23 13:24:36;;;;;;;1.33;1.23;;;28.70;90.10;;;;;;5043052;28;20055;-58
2022/07/23 13:27:07;;;;;;;0.35;0.35;;;28.70;90.00;;;;;;5048274;28;20045;-60
2022/07/23 13:29:37;;;;;;;0.90;0.90;;;28.80;89.90;;;;;;5044087;28;20056;-58
2022/07/23 13:32:05;;;;;;;2.85;2.08;;;28.80;89.70;;;;;;5032875;28;20375;-59
2022/07/23 13:34:37;;;;;;;3.60;1.80;;;28.80;89.50;;;;;;5037244;28;20422;-60
2022/07/23 13:37:07;;;;;;;1.98;1.10;;;28.80;89.80;;;;;;5041377;28;20048;-56
2022/07/23 13:39:34;;;;;;;;;;;28.80;89.00;;;;;;5028480;28;20089;-55
2022/07/23 13:42:21;;;;;;;0.30;0.30;;;28.80;88.70;;;;;;5049795;28;19936;-55
2022/07/23 13:44:49;;;;;;;0.93;0.93;;;28.90;88.50;;;;;;5052391;28;20048;-54
2022/07/23 13:47:17;;;;;;;1.25;0.73;;;28.90;88.30;;;;;;5046048;28;20053;-55
2022/07/23 13:49:44;;;;;;;0.55;0.55;;;28.90;88.00;;;;;;5045475;28;20052;-58
2022/07/23 13:52:15;;;;;;;4.50;1.20;;;28.90;87.80;;;;;;5046378;28;20050;-57
2022/07/23 13:54:43;;;;;;;2.08;1.83;;;28.80;87.50;;;;;;5048170;28;20580;-57
2022/07/23 13:57:10;;;;;;;1.70;0.82;;;28.80;87.40;;;;;;5046412;28;20060;-57
2022/07/23 13:59:38;;;;;;;0.60;0.60;;;28.80;87.10;;;;;;5041867;28;20384;-59
2022/07/23 14:02:07;;;;;;;1.35;0.68;;;28.80;86.60;;;;;;5033870;28;20061;-57
2022/07/23 14:04:52;;;;;;;3.25;1.40;;;29.00;86.20;;;;;;5041504;28;20045;-56
2022/07/23 14:07:19;;;;;;;0.50;0.50;;;29.00;85.80;;;;;;5044679;28;20064;-63
2022/07/23 14:09:48;;;;;;;0.68;0.68;;;28.90;85.30;;;;;;5046699;28;20059;-59
2022/07/23 14:12:16;;;;;;;2.03;1.10;;;29.00;85.20;;;;;;5054133;28;20049;-60
2022/07/23 14:14:44;;;;;;;3.10;1.50;;;29.10;84.90;;;;;;5047442;28;20038;-56
2022/07/23 14:17:11;;;;;;;1.35;1.20;;;29.20;84.50;;;;;;5049198;28;20044;-56
2022/07/23 14:19:39;;;;;;;0.57;0.57;;;29.20;84.20;;;;;;5044924;28;20041;-54
2022/07/23 14:22:06;;;;;;;0.80;0.80;;;29.30;83.90;;;;;;5043612;28;20500;-56
2022/07/23 14:24:34;;;;;;;2.10;0.70;;;29.30;83.80;;;;;;5047564;28;20041;-56
2022/07/23 14:27:03;;;;;;;3.17;1.65;;;29.20;83.90;;;;;;5048200;28;20044;-54
2022/07/23 14:29:32;;;;;;;1.67;1.30;;;29.10;84.00;;;;;;5056718;28;20049;-55
2022/07/23 14:32:01;;;;;;;3.90;2.13;;;29.10;84.10;;;;;;5050094;28;20040;-56
2022/07/23 14:34:29;;;;;;;2.08;1.45;;;29.00;84.00;;;;;;5047208;28;20428;-54
2022/07/23 14:36:57;;;;;;;;;;;29.00;84.10;;;;;;5035285;28;20046;-53
2022/07/23 14:39:24;;;;;;;0.70;0.70;;;29.10;84.00;;;;;;5046067;28;19920;-55
2022/07/23 14:41:54;;;;;;;1.08;1.05;;;29.20;83.60;;;;;;5041242;28;20030;-58
2022/07/23 14:44:21;;;;;;;0.73;0.73;;;29.20;83.40;;;;;;5038662;28;20041;-60
2022/07/23 14:46:48;;;;;;;;;;;29.20;83.50;;;;;;5047527;28;20052;-59
2022/07/23 14:49:16;;;;;;;1.13;0.68;;;29.30;83.50;;;;;;5059011;28;19931;-54
2022/07/23 14:51:44;;;;;;;2.10;1.45;;;29.40;83.30;;;;;;5046324;28;20041;-58
2022/07/23 14:54:13;;;;;;;;;;;29.50;83.00;;;;;;5044251;28;20509;-55
2022/07/23 14:56:41;;;;;;;1.02;0.93;;;29.50;82.60;;;;;;5038880;28;19967;-56
2022/07/23 14:59:09;;;;;;;0.90;0.90;;;29.60;82.30;;;;;;5043090;28;20068;-56
2022/07/23 15:01:37;;;;;;;1.08;0.98;;;29.70;81.80;;;;;;5029648;28;20489;-55
2022/07/23 15:04:05;;;;;;;2.40;1.08;;;29.70;81.40;;;;;;5037876;28;20053;-54
2022/07/23 15:06:53;;;;;;;0.65;0.65;;;29.70;81.00;;;;;;5048614;28;20084;-54
2022/07/23 15:09:20;;;;;;;10.38;2.63;;;29.70;80.60;;;;;;5038717;28;20053;-59